createdAt,value
2019-04-21T00:00:58.599Z,0.70
2019-04-21T00:03:33.365Z,0.70
2019-04-21T00:06:20.103Z,0.60
2019-04-21T00:08:50.545Z,0.70
2019-04-21T00:11:26.470Z,0.70
2019-04-21T00:13:49.727Z,0.70
2019-04-21T00:16:10.671Z,0.70
2019-04-21T00:19:03.428Z,0.70
2019-04-21T00:21:37.773Z,0.70
2019-04-21T00:24:24.885Z,0.70
2019-04-21T00:27:03.915Z,0.70
2019-04-21T00:29:38.516Z,0.60
2019-04-21T00:32:03.344Z,0.67
2019-04-21T00:34:21.722Z,0.70
2019-04-21T00:37:05.034Z,0.70
2019-04-21T00:42:14.164Z,0.70
2019-04-21T00:44:38.873Z,0.70
2019-04-21T00:47:24.114Z,0.70
2019-04-21T00:49:59.103Z,0.70
2019-04-21T00:55:20.199Z,0.70
2019-04-21T00:57:51.954Z,0.70
2019-04-21T01:00:20.343Z,0.70
2019-04-21T01:02:56.034Z,0.70
2019-04-21T01:05:22.532Z,0.70
2019-04-21T01:07:50.335Z,0.70
2019-04-21T01:10:20.789Z,0.70
2019-04-21T01:13:02.971Z,0.70
2019-04-21T01:15:37.278Z,0.70
2019-04-21T01:18:06.150Z,0.70
2019-04-21T01:20:18.659Z,0.70
2019-04-21T01:22:49.006Z,0.70
2019-04-21T01:25:28.209Z,0.70
2019-04-21T01:28:09.969Z,0.70
2019-04-21T01:30:50.326Z,0.70
2019-04-21T01:33:12.504Z,0.70
2019-04-21T01:35:48.441Z,0.70
2019-04-21T01:38:23.802Z,0.70
2019-04-21T01:40:57.152Z,0.70
2019-04-21T01:43:24.954Z,0.67
2019-04-21T01:45:53.916Z,0.70
2019-04-21T01:48:25.738Z,0.70
2019-04-21T01:50:55.528Z,0.70
2019-04-21T01:53:42.432Z,0.70
2019-04-21T01:56:30.084Z,0.70
2019-04-21T01:58:51.761Z,0.70
2019-04-21T02:01:33.634Z,0.60
2019-04-21T02:04:09.412Z,0.70
2019-04-21T02:06:39.521Z,0.70
2019-04-21T02:09:09.779Z,0.70
2019-04-21T02:11:53.388Z,0.70
2019-04-21T02:14:19.617Z,0.70
2019-04-21T02:16:47.548Z,0.70
2019-04-21T02:19:16.677Z,0.70
2019-04-21T02:21:43.601Z,0.70
2019-04-21T02:24:31.592Z,0.70
2019-04-21T02:26:59.429Z,0.70
2019-04-21T02:32:10.565Z,0.80
2019-04-21T02:34:52.983Z,0.70
2019-04-21T02:37:27.162Z,0.70
2019-04-21T02:39:49.802Z,0.80
2019-04-21T02:47:27.545Z,0.70
2019-04-21T02:50:01.966Z,0.70
2019-04-21T02:52:31.089Z,0.80
2019-04-21T02:54:55.632Z,0.70
2019-04-21T03:00:16.928Z,0.80
2019-04-21T03:02:54.609Z,0.80
2019-04-21T03:05:50.499Z,0.80
2019-04-21T03:08:18.754Z,0.70
2019-04-21T03:10:43.320Z,0.70
2019-04-21T03:13:25.061Z,0.70
2019-04-21T03:18:36.453Z,0.80
2019-04-21T03:20:53.182Z,0.70
2019-04-21T03:23:33.656Z,0.80
2019-04-21T03:25:59.046Z,0.80
2019-04-21T03:28:32.320Z,0.70
2019-04-21T03:34:15.627Z,0.70
2019-04-21T03:38:43.130Z,0.80
2019-04-21T03:41:04.167Z,0.80
2019-04-21T03:43:36.192Z,0.80
2019-04-21T03:46:11.980Z,0.80
2019-04-21T03:48:40.657Z,0.80
2019-04-21T03:51:22.483Z,0.80
2019-04-21T03:53:49.184Z,0.80
2019-04-21T03:56:27.519Z,0.80
2019-04-21T03:58:54.155Z,0.80
2019-04-21T04:01:48.668Z,0.80
2019-04-21T04:04:35.601Z,0.80
2019-04-21T04:07:31.183Z,0.80
2019-04-21T04:15:28.137Z,0.80
2019-04-21T04:17:46.465Z,0.80
2019-04-21T04:20:19.163Z,0.80
2019-04-21T04:22:51.760Z,0.80
2019-04-21T04:25:15.756Z,0.80
2019-04-21T04:27:59.883Z,0.80
2019-04-21T04:30:23.649Z,0.80
2019-04-21T04:32:53.781Z,0.80
2019-04-21T04:35:22.091Z,0.80
2019-04-21T04:37:55.959Z,0.80
2019-04-21T04:40:30.909Z,0.80
2019-04-21T04:50:50.106Z,0.80
2019-04-21T04:53:20.432Z,0.80
2019-04-21T04:55:48.033Z,0.80
2019-04-21T04:58:25.142Z,0.70
2019-04-21T05:01:08.692Z,0.87
2019-04-21T05:06:37.235Z,0.77
2019-04-21T05:14:02.980Z,0.80
2019-04-21T05:24:09.743Z,0.80
2019-04-21T05:26:23.039Z,0.80
2019-04-21T05:28:50.977Z,0.80
2019-04-21T05:31:44.645Z,0.80
2019-04-21T05:34:18.943Z,0.80
2019-04-21T05:37:10.757Z,0.80
2019-04-21T05:39:41.960Z,0.80
2019-04-21T05:42:06.417Z,0.80
2019-04-21T05:44:58.323Z,0.80
2019-04-21T05:47:34.916Z,0.80
2019-04-21T05:50:02.915Z,0.80
2019-04-21T05:52:45.936Z,0.80
2019-04-21T05:55:34.336Z,0.80
2019-04-21T05:57:57.317Z,0.73
2019-04-21T06:03:04.042Z,0.80
2019-04-21T06:08:09.951Z,0.80
2019-04-21T06:10:41.906Z,0.73
2019-04-21T06:13:19.922Z,0.70
2019-04-21T06:15:52.078Z,0.70
2019-04-21T06:18:20.247Z,0.70
2019-04-21T06:20:47.987Z,0.70
2019-04-21T06:23:22.413Z,0.70
2019-04-21T06:28:28.702Z,0.70
2019-04-21T06:31:05.424Z,0.80
2019-04-21T06:33:44.634Z,0.70
2019-04-21T06:41:35.386Z,0.70
2019-04-21T06:44:08.189Z,0.70
2019-04-21T06:46:39.284Z,0.70
2019-04-21T06:49:20.501Z,0.70
2019-04-21T06:51:55.987Z,0.70
2019-04-21T06:56:58.611Z,0.77
2019-04-21T06:59:13.491Z,0.70
2019-04-21T07:01:48.799Z,0.70
2019-04-21T07:04:37.758Z,0.70
2019-04-21T07:06:54.952Z,0.70
2019-04-21T07:09:26.983Z,0.70
2019-04-21T07:11:55.036Z,0.70
2019-04-21T07:14:31.993Z,0.70
2019-04-21T07:17:06.395Z,0.70
2019-04-21T07:19:35.151Z,0.80
2019-04-21T07:22:03.104Z,0.70
2019-04-21T07:24:37.292Z,0.70
2019-04-21T07:27:13.080Z,0.67
2019-04-21T07:29:50.682Z,0.70
2019-04-21T07:32:27.793Z,0.70
2019-04-21T07:34:46.102Z,0.70
2019-04-21T07:37:11.648Z,0.70
2019-04-21T07:39:45.258Z,0.70
2019-04-21T07:42:13.422Z,0.70
2019-04-21T07:44:46.062Z,0.70
2019-04-21T07:47:27.187Z,0.60
2019-04-21T07:50:14.876Z,0.70
2019-04-21T07:53:06.990Z,0.70
2019-04-21T07:58:02.610Z,0.60
2019-04-21T08:00:45.352Z,0.60
2019-04-21T08:03:15.578Z,0.70
2019-04-21T08:05:47.054Z,0.63
2019-04-21T08:08:09.521Z,0.70
2019-04-21T08:10:47.466Z,0.60
2019-04-21T08:13:31.364Z,0.60
2019-04-21T08:15:51.051Z,0.70
2019-04-21T08:18:20.565Z,0.60
2019-04-21T08:20:54.934Z,0.60
2019-04-21T08:23:29.931Z,0.60
2019-04-21T08:28:34.594Z,0.60
2019-04-21T08:31:06.683Z,0.60
2019-04-21T08:33:41.464Z,0.70
2019-04-21T08:36:24.713Z,0.70
2019-04-21T08:38:45.862Z,0.70
2019-04-21T08:41:08.089Z,0.60
2019-04-21T08:51:31.971Z,0.60
2019-04-21T08:53:57.457Z,0.60
2019-04-21T08:56:40.159Z,0.60
2019-04-21T08:59:47.160Z,0.70
2019-04-21T09:05:09.445Z,0.60
2019-04-21T09:10:13.716Z,0.60
2019-04-21T09:12:43.239Z,0.60
2019-04-21T09:15:14.398Z,0.60
2019-04-21T09:17:41.146Z,0.60
2019-04-21T09:20:25.106Z,0.60
2019-04-21T09:22:50.902Z,0.60
2019-04-21T09:25:28.594Z,0.60
2019-04-21T09:27:55.017Z,0.60
2019-04-21T09:30:10.781Z,0.60
2019-04-21T09:32:42.464Z,0.60
2019-04-21T09:35:16.635Z,0.60
2019-04-21T09:37:53.373Z,0.60
2019-04-21T09:40:27.364Z,0.60
2019-04-21T09:42:57.493Z,0.60
2019-04-21T09:45:24.327Z,0.60
2019-04-21T09:48:02.647Z,0.60
2019-04-21T09:50:26.806Z,0.60
2019-04-21T09:53:04.015Z,0.60
2019-04-21T09:55:39.565Z,0.60
2019-04-21T09:58:09.932Z,0.60
2019-04-21T10:00:47.637Z,0.60
2019-04-21T10:03:09.882Z,0.60
2019-04-21T10:05:38.426Z,0.53
2019-04-21T10:08:10.321Z,0.60
2019-04-21T10:10:40.678Z,0.60
2019-04-21T10:13:11.005Z,0.60
2019-04-21T10:15:41.948Z,0.60
2019-04-21T10:18:17.250Z,0.60
2019-04-21T10:20:49.192Z,0.57
2019-04-21T10:23:19.531Z,0.60
2019-04-21T10:25:50.594Z,0.60
2019-04-21T10:28:21.213Z,0.60
2019-04-21T10:30:52.825Z,0.60
2019-04-21T10:33:24.101Z,0.60
2019-04-21T10:35:55.161Z,0.50
2019-04-21T10:38:33.161Z,0.60
2019-04-21T10:40:57.429Z,0.60
2019-04-21T10:43:29.167Z,0.60
2019-04-21T10:45:59.570Z,0.50
2019-04-21T10:48:31.707Z,0.60
2019-04-21T10:51:02.008Z,0.60
2019-04-21T10:53:36.718Z,0.60
2019-04-21T10:56:17.346Z,0.60
2019-04-21T10:58:42.282Z,0.60
2019-04-21T11:01:18.963Z,0.50
2019-04-21T11:03:56.496Z,0.60
2019-04-21T11:06:26.687Z,0.53
2019-04-21T11:08:59.086Z,0.60
2019-04-21T11:11:30.056Z,0.60
2019-04-21T11:14:02.259Z,0.50
2019-04-21T11:16:33.258Z,0.50
2019-04-21T11:19:04.061Z,0.57
2019-04-21T11:21:34.716Z,0.50
2019-04-21T11:24:06.040Z,0.50
2019-04-21T11:26:36.458Z,0.60
2019-04-21T11:29:07.286Z,0.50
2019-04-21T11:31:38.920Z,0.50
2019-04-21T11:34:09.411Z,0.50
2019-04-21T11:36:40.444Z,0.60
2019-04-21T11:39:34.793Z,0.50
2019-04-21T11:41:57.695Z,0.60
2019-04-21T11:44:29.049Z,0.60
2019-04-21T11:47:00.549Z,0.50
2019-04-21T11:49:32.515Z,0.60
2019-04-21T11:52:03.087Z,0.50
2019-04-21T11:54:33.404Z,0.53
2019-04-21T11:57:12.381Z,0.60
2019-04-21T11:59:35.798Z,0.50
2019-04-21T12:02:06.161Z,0.60
2019-04-21T12:04:36.444Z,0.50
2019-04-21T12:07:07.192Z,0.50
2019-04-21T12:09:37.806Z,0.50
2019-04-21T12:12:09.588Z,0.50
2019-04-21T12:14:39.876Z,0.50
2019-04-21T12:17:10.300Z,0.50
2019-04-21T12:19:40.888Z,0.50
2019-04-21T12:22:20.170Z,0.50
2019-04-21T12:24:43.434Z,0.50
2019-04-21T12:27:14.025Z,0.50
2019-04-21T12:29:45.802Z,0.53
2019-04-21T12:32:36.036Z,0.50
2019-04-21T12:35:08.192Z,0.50
2019-04-21T12:37:38.664Z,0.50
2019-04-21T12:40:10.420Z,0.50
2019-04-21T12:42:42.102Z,0.60
2019-04-21T12:45:13.176Z,0.50
2019-04-21T12:47:43.987Z,0.50
2019-04-21T12:50:14.888Z,0.50
2019-04-21T12:52:45.369Z,0.50
2019-04-21T12:55:15.733Z,0.50
2019-04-21T12:57:45.983Z,0.50
2019-04-21T13:00:18.680Z,0.50
2019-04-21T13:02:49.795Z,0.50
2019-04-21T13:05:20.251Z,0.50
2019-04-21T13:07:51.199Z,0.50
2019-04-21T13:10:22.239Z,0.50
2019-04-21T13:12:52.684Z,0.50
2019-04-21T13:15:22.981Z,0.50
2019-04-21T13:17:54.225Z,0.50
2019-04-21T13:20:25.393Z,0.50
2019-04-21T13:22:55.936Z,0.60
2019-04-21T13:25:32.168Z,0.50
2019-04-21T13:28:02.862Z,0.50
2019-04-21T13:30:33.386Z,0.50
2019-04-21T13:33:05.043Z,0.50
2019-04-21T13:35:37.090Z,0.50
2019-04-21T13:38:18.662Z,0.50
2019-04-21T13:41:15.011Z,0.53
2019-04-21T13:43:32.858Z,0.60
2019-04-21T13:46:03.837Z,0.50
2019-04-21T13:48:34.713Z,0.50
2019-04-21T13:51:05.409Z,0.50
2019-04-21T13:53:36.344Z,0.50
2019-04-21T13:56:08.904Z,0.50
2019-04-21T13:58:40.138Z,0.50
2019-04-21T14:01:11.730Z,0.50
2019-04-21T14:03:43.902Z,0.50
2019-04-21T14:06:14.313Z,0.50
2019-04-21T14:08:45.364Z,0.50
2019-04-21T14:11:17.548Z,0.60
2019-04-21T14:13:48.250Z,0.50
2019-04-21T14:16:20.256Z,0.60
2019-04-21T14:18:51.735Z,0.50
2019-04-21T14:21:23.190Z,0.50
2019-04-21T14:23:54.559Z,0.53
2019-04-21T14:26:26.826Z,0.60
2019-04-21T14:28:57.323Z,0.60
2019-04-21T14:31:28.415Z,0.60
2019-04-21T14:33:59.667Z,0.50
2019-04-21T14:36:30.731Z,0.50
2019-04-21T14:39:01.052Z,0.50
2019-04-21T14:41:32.496Z,0.55
2019-04-21T14:44:02.943Z,0.57
2019-04-21T14:46:39.541Z,0.50
2019-04-21T14:49:21.363Z,0.50
2019-04-21T14:51:56.832Z,0.53
2019-04-21T14:54:50.840Z,0.60
2019-04-21T14:57:21.390Z,0.57
2019-04-21T14:59:52.770Z,0.60
2019-04-21T15:02:23.365Z,0.60
2019-04-21T15:04:53.784Z,0.50
2019-04-21T15:07:25.356Z,0.60
2019-04-21T15:10:04.671Z,0.60
2019-04-21T15:12:27.882Z,0.50
2019-04-21T15:14:58.266Z,0.60
2019-04-21T15:17:29.361Z,0.53
2019-04-21T15:20:06.573Z,0.60
2019-04-21T15:22:32.314Z,0.60
2019-04-21T15:25:02.888Z,0.60
2019-04-21T15:27:34.770Z,0.60
2019-04-21T15:30:06.959Z,0.60
2019-04-21T15:32:37.404Z,0.53
2019-04-21T15:35:09.085Z,0.60
2019-04-21T15:37:39.884Z,0.55
2019-04-21T15:40:21.679Z,0.50
2019-04-21T15:42:44.280Z,0.50
2019-04-21T15:45:14.781Z,0.50
2019-04-21T15:47:46.168Z,0.55
2019-04-21T15:50:19.392Z,0.50
2019-04-21T15:52:49.797Z,0.50
2019-04-21T15:55:44.977Z,0.50
2019-04-21T15:58:46.581Z,0.50
2019-04-21T16:01:25.149Z,0.50
2019-04-21T16:03:58.479Z,0.47
2019-04-21T16:06:27.756Z,0.50
2019-04-21T16:09:00.964Z,0.50
2019-04-21T16:11:31.491Z,0.50
2019-04-21T16:14:03.627Z,0.50
2019-04-21T16:16:34.611Z,0.50
2019-04-21T16:19:06.227Z,0.50
2019-04-21T16:21:40.256Z,0.50
2019-04-21T16:24:08.888Z,0.50
2019-04-21T16:26:40.532Z,0.50
2019-04-21T16:29:11.330Z,0.50
2019-04-21T16:31:42.663Z,0.50
2019-04-21T16:34:15.699Z,0.50
2019-04-21T16:36:45.671Z,0.50
2019-04-21T16:39:17.560Z,0.57
2019-04-21T16:41:48.050Z,0.53
2019-04-21T16:44:18.853Z,0.57
2019-04-21T16:46:49.607Z,0.50
2019-04-21T16:49:20.013Z,0.50
2019-04-21T16:52:10.047Z,0.50
2019-04-21T16:54:41.943Z,0.50
2019-04-21T16:57:21.710Z,0.50
2019-04-21T16:59:54.893Z,0.50
2019-04-21T17:02:25.322Z,0.40
2019-04-21T17:04:56.263Z,0.50
2019-04-21T17:07:28.172Z,0.50
2019-04-21T17:09:58.925Z,0.50
2019-04-21T17:12:30.684Z,0.50
2019-04-21T17:15:18.789Z,0.50
2019-04-21T17:17:54.338Z,0.50
2019-04-21T17:20:21.675Z,0.50
2019-04-21T17:22:37.636Z,0.40
2019-04-21T17:25:08.717Z,0.50
2019-04-21T17:27:39.116Z,0.50
2019-04-21T17:30:10.945Z,0.50
2019-04-21T17:32:45.926Z,0.50
2019-04-21T17:35:14.309Z,0.50
2019-04-21T17:37:45.868Z,0.50
2019-04-21T17:40:22.282Z,0.50
2019-04-21T17:43:01.316Z,0.50
2019-04-21T17:45:24.873Z,0.40
2019-04-21T17:48:02.399Z,0.47
2019-04-21T17:50:59.301Z,0.50
2019-04-21T17:53:40.191Z,0.50
2019-04-21T17:56:33.885Z,0.50
2019-04-21T17:58:58.435Z,0.50
2019-04-21T18:01:32.254Z,0.50
2019-04-21T18:04:10.841Z,0.50
2019-04-21T18:06:53.024Z,0.60
2019-04-21T18:09:40.131Z,0.50
2019-04-21T18:11:59.443Z,0.50
2019-04-21T18:14:13.962Z,0.50
2019-04-21T18:16:47.867Z,0.50
2019-04-21T18:19:20.579Z,0.50
2019-04-21T18:21:59.543Z,0.50
2019-04-21T18:24:40.699Z,0.50
2019-04-21T18:27:05.684Z,0.50
2019-04-21T18:29:34.481Z,0.57
2019-04-21T18:32:06.212Z,0.50
2019-04-21T18:34:57.943Z,0.50
2019-04-21T18:38:08.004Z,0.50
2019-04-21T18:40:34.775Z,0.60
2019-04-21T18:43:44.971Z,0.50
2019-04-21T18:46:14.875Z,0.50
2019-04-21T18:48:41.173Z,0.60
2019-04-21T18:51:23.848Z,0.60
2019-04-21T18:54:19.372Z,0.50
2019-04-21T18:56:29.681Z,0.50
2019-04-21T18:59:00.706Z,0.60
2019-04-21T19:01:33.497Z,0.60
2019-04-21T19:04:06.319Z,0.50
2019-04-21T19:06:51.698Z,0.60
2019-04-21T19:09:35.844Z,0.60
2019-04-21T19:12:05.230Z,0.60
2019-04-21T19:14:47.507Z,0.60
2019-04-21T19:17:29.147Z,0.60
2019-04-21T19:19:46.731Z,0.60
2019-04-21T19:22:14.053Z,0.60
2019-04-21T19:25:00.830Z,0.60
2019-04-21T19:27:19.212Z,0.60
2019-04-21T19:29:57.203Z,0.60
2019-04-21T19:32:19.892Z,0.60
2019-04-21T19:34:36.731Z,0.60
2019-04-21T19:37:11.570Z,0.60
2019-04-21T19:39:52.723Z,0.60
2019-04-21T19:42:18.312Z,0.60
2019-04-21T19:44:56.528Z,0.60
2019-04-21T19:47:34.688Z,0.60
2019-04-21T19:50:01.451Z,0.60
2019-04-21T19:52:30.937Z,0.60
2019-04-21T19:54:50.548Z,0.60
2019-04-21T19:57:20.963Z,0.60
2019-04-21T19:59:55.330Z,0.60
2019-04-21T20:02:24.704Z,0.60
2019-04-21T20:05:03.085Z,0.60
2019-04-21T20:07:44.371Z,0.60
2019-04-21T20:10:23.735Z,0.60
2019-04-21T20:12:49.920Z,0.60
2019-04-21T20:15:30.388Z,0.60
2019-04-21T20:17:50.322Z,0.60
2019-04-21T20:20:08.993Z,0.60
2019-04-21T20:22:43.583Z,0.70
2019-04-21T20:25:16.119Z,0.60
2019-04-21T20:27:54.298Z,0.60
2019-04-21T20:30:32.842Z,0.60
2019-04-21T20:33:20.237Z,0.60
2019-04-21T20:35:46.581Z,0.60
2019-04-21T20:38:09.256Z,0.60
2019-04-21T20:40:35.932Z,0.60
2019-04-21T20:43:17.707Z,0.60
2019-04-21T20:45:49.431Z,0.60
2019-04-21T20:48:10.863Z,0.60
2019-04-21T20:50:41.789Z,0.60
2019-04-21T20:53:24.032Z,0.60
2019-04-21T20:55:47.754Z,0.60
2019-04-21T20:58:23.667Z,0.60
2019-04-21T21:01:20.863Z,0.60
2019-04-21T21:03:34.030Z,0.60
2019-04-21T21:05:54.349Z,0.60
2019-04-21T21:08:35.805Z,0.60
2019-04-21T21:11:03.799Z,0.60
2019-04-21T21:13:52.262Z,0.60
2019-04-21T21:16:17.955Z,0.60
2019-04-21T21:18:56.202Z,0.60
2019-04-21T21:21:11.794Z,0.60
2019-04-21T21:23:51.374Z,0.60
2019-04-21T21:26:21.763Z,0.60
2019-04-21T21:28:42.977Z,0.60
2019-04-21T21:31:19.055Z,0.60
2019-04-21T21:34:06.329Z,0.60
2019-04-21T21:36:27.443Z,0.60
2019-04-21T21:38:59.828Z,0.60
2019-04-21T21:41:21.273Z,0.60
2019-04-21T21:43:46.851Z,0.60
2019-04-21T21:46:36.865Z,0.70
2019-04-21T21:48:58.174Z,0.60
2019-04-21T21:51:33.190Z,0.70
2019-04-21T21:53:52.704Z,0.60
2019-04-21T21:56:24.610Z,0.70
2019-04-21T21:58:55.636Z,0.60
2019-04-21T22:01:31.912Z,0.70
2019-04-21T22:04:09.171Z,0.67
2019-04-21T22:06:44.639Z,0.70
2019-04-21T22:09:06.237Z,0.60
2019-04-21T22:11:37.817Z,0.60
2019-04-21T22:14:11.619Z,0.70
2019-04-21T22:16:51.749Z,0.70
2019-04-21T22:19:32.485Z,0.70
2019-04-21T22:22:05.169Z,0.60
2019-04-21T22:24:33.851Z,0.60
2019-04-21T22:26:49.367Z,0.70
2019-04-21T22:29:19.850Z,0.60
2019-04-21T22:31:52.759Z,0.60
2019-04-21T22:34:29.631Z,0.70
2019-04-21T22:37:01.571Z,0.63
2019-04-21T22:39:44.978Z,0.70
2019-04-21T22:42:05.569Z,0.60
2019-04-21T22:44:30.206Z,0.60
2019-04-21T22:47:10.981Z,0.70
2019-04-21T22:49:32.682Z,0.70
2019-04-21T22:52:10.375Z,0.60
2019-04-21T22:54:39.660Z,0.70
2019-04-21T22:57:14.167Z,0.70
2019-04-21T22:59:40.433Z,0.70
2019-04-21T23:02:15.349Z,0.60
2019-04-21T23:04:47.587Z,0.60
2019-04-21T23:07:18.713Z,0.70
2019-04-21T23:09:47.531Z,0.70
2019-04-21T23:12:20.518Z,0.70
2019-04-21T23:14:58.582Z,0.70
2019-04-21T23:17:42.248Z,0.70
2019-04-21T23:20:19.522Z,0.70
2019-04-21T23:22:56.889Z,0.70
2019-04-21T23:25:20.673Z,0.70
2019-04-21T23:27:47.997Z,0.70
2019-04-21T23:30:26.435Z,0.70
2019-04-21T23:32:46.338Z,0.70
2019-04-21T23:35:14.372Z,0.70
2019-04-21T23:37:50.075Z,0.70
2019-04-21T23:40:18.146Z,0.70
2019-04-21T23:42:45.527Z,0.70
2019-04-21T23:45:19.559Z,0.70
2019-04-21T23:48:06.962Z,0.70
2019-04-21T23:50:34.281Z,0.60
2019-04-21T23:52:53.528Z,0.70
2019-04-21T23:55:25.228Z,0.70
2019-04-21T23:58:06.119Z,0.70
